Time;durP1;ratioP1;P1;durP2;ratioP2;P2;SDS_P1;SDS_P2;PMS_P1;PMS_P2;Temp;Humidity;BMP_temperature;BMP_pressure;BME280_temperature;BME280_humidity;BME280_pressure;Samples;Min_cycle;Max_cycle;Signal;HPM_P1;HPM_P2
2023/03/18 00:03:36;;;;;;;3.88;2.28;;;;;;;;;;10374625;28;20033;-59
2023/03/18 00:08:38;;;;;;;3.28;1.88;;;;;;;;;;10374468;28;20100;-59
2023/03/18 00:13:40;;;;;;;2.75;2.28;;;;;;;;;;10373548;28;20022;-60
2023/03/18 00:18:41;;;;;;;4.47;2.30;;;;;;;;;;10373095;28;20545;-60
2023/03/18 00:23:42;;;;;;;3.45;2.25;;;;;;;;;;10373271;28;20370;-61
2023/03/18 00:28:43;;;;;;;4.50;2.55;;;;;;;;;;10372741;28;20052;-61
2023/03/18 00:33:46;;;;;;;4.10;2.10;;;;;;;;;;10372613;28;20053;-61
2023/03/18 00:38:49;;;;;;;4.60;2.38;;;;;;;;;;10372216;28;20100;-61
2023/03/18 00:43:53;;;;;;;3.53;2.20;;;;;;;;;;10372457;28;20113;-61
2023/03/18 00:48:59;;;;;;;2.30;1.92;;;;;;;;;;10371918;28;20080;-60
2023/03/18 00:54:05;;;;;;;4.15;2.10;;;;;;;;;;10372133;28;20060;-60
2023/03/18 00:59:07;;;;;;;2.95;2.03;;;;;;;;;;10371693;28;20445;-60
2023/03/18 01:04:08;;;;;;;5.53;2.78;;;;;;;;;;10371744;28;20030;-60
2023/03/18 01:09:10;;;;;;;3.55;1.90;;;;;;;;;;10371096;28;20022;-60
2023/03/18 01:14:11;;;;;;;3.25;2.10;;;;;;;;;;10370952;28;20045;-60
2023/03/18 01:19:12;;;;;;;2.55;1.85;;;;;;;;;;10371311;28;20036;-60
2023/03/18 01:24:13;;;;;;;3.00;2.00;;;;;;;;;;10370384;28;20413;-60
2023/03/18 01:29:14;;;;;;;3.85;2.08;;;;;;;;;;10370374;28;20026;-60
2023/03/18 01:34:15;;;;;;;4.07;2.35;;;;;;;;;;10370615;28;20030;-60
2023/03/18 01:39:16;;;;;;;6.90;2.30;;;;;;;;;;10369961;28;20036;-60
2023/03/18 01:44:21;;;;;;;3.92;2.30;;;;;;;;;;10369633;28;20430;-59
2023/03/18 01:49:42;;;;;;;4.97;2.47;;;;;;;;;;10369085;28;20120;-59
2023/03/18 01:55:04;;;;;;;3.55;2.42;;;;;;;;;;10369328;28;20036;-60
2023/03/18 02:00:06;;;;;;;3.15;2.25;;;;;;;;;;10368709;28;20041;-59
2023/03/18 02:05:10;;;;;;;3.95;2.50;;;;;;;;;;10369424;28;20117;-60
2023/03/18 02:10:17;;;;;;;3.05;2.38;;;;;;;;;;10368816;28;20026;-60
2023/03/18 02:15:22;;;;;;;3.92;2.50;;;;;;;;;;10369278;28;20359;-59
2023/03/18 02:20:54;;;;;;;2.95;2.22;;;;;;;;;;10367446;28;20493;-61
2023/03/18 02:26:12;;;;;;;4.03;2.28;;;;;;;;;;10368652;28;20049;-60
2023/03/18 02:31:16;;;;;;;3.23;2.20;;;;;;;;;;10367794;28;20040;-60
2023/03/18 02:36:27;;;;;;;2.92;1.77;;;;;;;;;;10367824;28;20535;-60
2023/03/18 02:41:32;;;;;;;3.13;2.33;;;;;;;;;;10367745;28;20402;-60
2023/03/18 02:46:56;;;;;;;3.67;2.40;;;;;;;;;;10368414;28;20042;-60
2023/03/18 02:51:57;;;;;;;3.45;2.10;;;;;;;;;;10367108;28;20030;-59
2023/03/18 02:56:58;;;;;;;3.08;2.20;;;;;;;;;;10368189;28;20461;-59
2023/03/18 03:01:59;;;;;;;3.15;2.22;;;;;;;;;;10369557;28;20037;-59
2023/03/18 03:07:01;;;;;;;2.65;2.13;;;;;;;;;;10375650;28;20029;-59
2023/03/18 03:12:01;;;;;;;2.75;2.20;;;;;;;;;;10375943;28;20091;-59
2023/03/18 03:17:03;;;;;;;2.88;2.05;;;;;;;;;;10375959;28;20523;-59
2023/03/18 03:22:04;;;;;;;6.40;2.35;;;;;;;;;;10375550;28;20025;-60
2023/03/18 03:27:04;;;;;;;3.00;2.20;;;;;;;;;;10375074;28;20420;-59
2023/03/18 03:32:05;;;;;;;2.80;2.17;;;;;;;;;;10375363;28;20040;-59
2023/03/18 03:37:06;;;;;;;2.60;2.40;;;;;;;;;;10374958;28;20026;-59
2023/03/18 03:42:07;;;;;;;3.15;2.22;;;;;;;;;;10374291;28;20049;-59
2023/03/18 03:47:08;;;;;;;4.15;2.58;;;;;;;;;;10374294;28;20042;-60
2023/03/18 03:52:08;;;;;;;3.55;2.05;;;;;;;;;;10374037;28;20030;-60
2023/03/18 03:57:09;;;;;;;4.13;2.83;;;;;;;;;;10373979;28;20030;-60
2023/03/18 04:02:10;;;;;;;2.25;2.05;;;;;;;;;;10374104;28;20268;-59
2023/03/18 04:07:13;;;;;;;2.30;2.00;;;;;;;;;;10374039;28;20079;-59
2023/03/18 04:12:13;;;;;;;1.67;1.58;;;;;;;;;;10373318;28;20080;-59
2023/03/18 04:17:14;;;;;;;2.47;2.15;;;;;;;;;;10373202;28;20037;-59
2023/03/18 04:22:15;;;;;;;2.50;2.03;;;;;;;;;;10373291;28;20053;-60
2023/03/18 04:27:17;;;;;;;5.63;2.20;;;;;;;;;;10372691;28;20022;-59
2023/03/18 04:32:17;;;;;;;3.17;2.45;;;;;;;;;;10372622;28;20669;-60
2023/03/18 04:37:19;;;;;;;3.20;2.50;;;;;;;;;;10372522;28;20311;-59
2023/03/18 04:42:20;;;;;;;3.63;2.13;;;;;;;;;;10372623;28;20064;-60
2023/03/18 04:47:21;;;;;;;3.65;2.30;;;;;;;;;;10372225;28;20465;-60
2023/03/18 04:52:23;;;;;;;2.72;2.05;;;;;;;;;;10371663;28;20440;-60
2023/03/18 04:57:24;;;;;;;2.75;2.22;;;;;;;;;;10372592;28;20302;-60
2023/03/18 05:02:24;;;;;;;2.30;2.10;;;;;;;;;;10371483;28;20538;-59
2023/03/18 05:07:26;;;;;;;3.05;2.28;;;;;;;;;;10372474;28;20038;-59
2023/03/18 05:12:26;;;;;;;3.00;2.17;;;;;;;;;;10371996;28;20063;-59
2023/03/18 05:17:27;;;;;;;2.88;2.00;;;;;;;;;;10371000;28;20037;-60
2023/03/18 05:22:28;;;;;;;5.53;2.30;;;;;;;;;;10371002;28;20084;-59
2023/03/18 05:27:28;;;;;;;2.63;2.03;;;;;;;;;;10370801;28;20026;-59
2023/03/18 05:32:30;;;;;;;2.60;1.98;;;;;;;;;;10370765;28;20036;-59
2023/03/18 05:37:31;;;;;;;2.65;2.30;;;;;;;;;;10370655;28;20026;-59
2023/03/18 05:42:32;;;;;;;2.65;2.20;;;;;;;;;;10369779;28;20033;-59
2023/03/18 05:47:33;;;;;;;2.65;2.05;;;;;;;;;;10370178;28;20061;-59
2023/03/18 05:52:33;;;;;;;2.63;2.13;;;;;;;;;;10369464;28;20073;-59
2023/03/18 05:57:34;;;;;;;3.33;2.20;;;;;;;;;;10369358;28;20037;-59
2023/03/18 06:02:35;;;;;;;2.63;2.00;;;;;;;;;;10368718;28;20041;-59
2023/03/18 06:07:35;;;;;;;2.00;1.83;;;;;;;;;;10369519;28;20029;-59
2023/03/18 06:12:36;;;;;;;2.33;2.03;;;;;;;;;;10367445;28;20041;-58
2023/03/18 06:17:37;;;;;;;2.97;2.13;;;;;;;;;;10368874;28;20046;-59
2023/03/18 06:22:38;;;;;;;2.30;2.03;;;;;;;;;;10368169;28;20037;-59
2023/03/18 06:27:39;;;;;;;2.15;1.95;;;;;;;;;;10366722;28;20490;-59
2023/03/18 06:32:41;;;;;;;2.63;2.10;;;;;;;;;;10368794;28;20026;-59
2023/03/18 06:37:42;;;;;;;4.50;2.50;;;;;;;;;;10367216;28;20385;-59
2023/03/18 06:42:43;;;;;;;7.88;3.20;;;;;;;;;;10367864;28;20034;-59
2023/03/18 06:47:45;;;;;;;6.05;3.25;;;;;;;;;;10367773;28;20042;-60
2023/03/18 06:52:46;;;;;;;9.93;3.70;;;;;;;;;;10367974;28;20026;-60
2023/03/18 06:57:47;;;;;;;6.50;3.70;;;;;;;;;;10367522;28;20351;-60
2023/03/18 07:02:48;;;;;;;8.00;4.20;;;;;;;;;;10367854;28;20033;-60
2023/03/18 07:07:49;;;;;;;5.63;4.03;;;;;;;;;;10368128;28;20040;-60
2023/03/18 07:12:51;;;;;;;7.07;4.10;;;;;;;;;;10367841;28;20030;-63
2023/03/18 07:17:52;;;;;;;6.10;4.43;;;;;;;;;;10366473;28;20029;-59
2023/03/18 07:22:52;;;;;;;14.98;4.53;;;;;;;;;;10367350;28;20029;-60
2023/03/18 07:27:53;;;;;;;7.32;4.65;;;;;;;;;;10366819;28;20474;-60
2023/03/18 07:32:54;;;;;;;22.83;6.57;;;;;;;;;;10366187;28;20085;-60
2023/03/18 07:37:55;;;;;;;16.77;8.68;;;;;;;;;;10367262;28;20034;-60
2023/03/18 07:42:56;;;;;;;16.75;10.05;;;;;;;;;;10366087;28;20092;-60
2023/03/18 07:47:56;;;;;;;22.58;12.75;;;;;;;;;;10368738;28;20088;-60
2023/03/18 07:52:58;;;;;;;23.70;11.70;;;;;;;;;;10373631;28;20033;-59
2023/03/18 07:57:59;;;;;;;31.45;12.35;;;;;;;;;;10374479;28;20109;-59
2023/03/18 08:03:00;;;;;;;25.83;13.20;;;;;;;;;;10373704;28;20366;-59
2023/03/18 08:08:01;;;;;;;20.70;12.65;;;;;;;;;;10373786;28;20363;-59
2023/03/18 08:13:02;;;;;;;31.50;14.10;;;;;;;;;;10374090;28;20026;-59
2023/03/18 08:18:03;;;;;;;19.80;13.07;;;;;;;;;;10374002;28;20057;-59
2023/03/18 08:23:04;;;;;;;30.13;13.95;;;;;;;;;;10373530;28;20061;-60
2023/03/18 08:28:06;;;;;;;25.20;13.98;;;;;;;;;;10373103;28;20366;-60
2023/03/18 08:33:07;;;;;;;33.10;15.52;;;;;;;;;;10373048;28;20033;-59
2023/03/18 08:38:08;;;;;;;28.90;18.38;;;;;;;;;;10372793;28;20105;-59
2023/03/18 08:43:09;;;;;;;35.60;17.40;;;;;;;;;;10372236;28;20034;-59
2023/03/18 08:48:09;;;;;;;56.50;17.48;;;;;;;;;;10372130;28;20057;-59
2023/03/18 08:53:11;;;;;;;56.60;18.63;;;;;;;;;;10372493;28;20030;-59
2023/03/18 08:58:12;;;;;;;40.50;17.02;;;;;;;;;;10371834;28;20026;-59
2023/03/18 09:03:13;;;;;;;39.92;16.63;;;;;;;;;;10371477;28;20041;-59
2023/03/18 09:08:14;;;;;;;36.53;16.38;;;;;;;;;;10371722;28;20034;-59
2023/03/18 09:13:14;;;;;;;27.33;15.43;;;;;;;;;;10370651;28;20030;-58
2023/03/18 09:18:17;;;;;;;35.95;15.13;;;;;;;;;;10370952;28;20117;-59
2023/03/18 09:23:18;;;;;;;40.13;15.95;;;;;;;;;;10370572;28;20091;-59
2023/03/18 09:28:18;;;;;;;44.20;15.93;;;;;;;;;;10370540;28;20037;-59
2023/03/18 09:33:19;;;;;;;40.38;15.82;;;;;;;;;;10370314;28;20021;-59
2023/03/18 09:38:21;;;;;;;31.80;14.07;;;;;;;;;;10370835;28;20037;-59
2023/03/18 09:43:51;;;;;;;41.05;13.93;;;;;;;;;;10370139;28;20041;-59
2023/03/18 09:49:01;;;;;;;33.85;13.85;;;;;;;;;;10369789;28;20547;-59
2023/03/18 09:54:15;;;;;;;30.88;12.77;;;;;;;;;;10369495;28;20025;-59
2023/03/18 09:59:21;;;;;;;23.80;11.95;;;;;;;;;;10369132;28;20029;-59
2023/03/18 10:04:43;;;;;;;24.80;13.52;;;;;;;;;;10369585;28;20040;-59
2023/03/18 10:10:01;;;;;;;35.63;14.77;;;;;;;;;;10369078;28;20640;-59
2023/03/18 10:15:31;;;;;;;33.87;13.93;;;;;;;;;;10367639;28;20030;-59
2023/03/18 10:20:56;;;;;;;27.90;12.70;;;;;;;;;;10368268;28;20427;-59
2023/03/18 10:26:05;;;;;;;23.02;12.45;;;;;;;;;;10367822;28;20073;-59
2023/03/18 10:31:25;;;;;;;16.50;11.45;;;;;;;;;;10367314;28;20092;-59
2023/03/18 10:37:09;;;;;;;21.80;11.23;;;;;;;;;;10367796;28;20100;-59
2023/03/18 10:42:25;;;;;;;25.88;11.30;;;;;;;;;;10363464;28;20147;-59
2023/03/18 10:47:31;;;;;;;22.98;11.82;;;;;;;;;;10365825;28;20058;-59
2023/03/18 10:52:57;;;;;;;22.85;10.25;;;;;;;;;;10365878;28;20034;-59
2023/03/18 10:57:58;;;;;;;19.58;11.05;;;;;;;;;;10368377;28;20042;-59
2023/03/18 11:03:00;;;;;;;24.90;9.98;;;;;;;;;;10366912;28;20044;-59
2023/03/18 11:08:10;;;;;;;22.35;9.85;;;;;;;;;;10367271;28;20037;-59
2023/03/18 11:13:19;;;;;;;12.90;7.93;;;;;;;;;;10367956;28;20030;-59
2023/03/18 11:18:25;;;;;;;;;;;;;;;;;;10367261;28;20033;-59
2023/03/18 11:24:06;;;;;;;14.70;8.07;;;;;;;;;;10352717;28;19924;-59
2023/03/18 11:29:22;;;;;;;15.88;7.78;;;;;;;;;;10375478;28;20552;-58
2023/03/18 11:34:33;;;;;;;20.38;7.85;;;;;;;;;;10373657;28;20088;-59
2023/03/18 11:39:39;;;;;;;13.15;7.78;;;;;;;;;;10374786;28;20105;-59
2023/03/18 11:44:40;;;;;;;11.25;6.88;;;;;;;;;;10374100;28;20488;-58
2023/03/18 11:49:42;;;;;;;11.98;6.57;;;;;;;;;;10374404;28;20025;-59
2023/03/18 11:54:51;;;;;;;11.68;6.95;;;;;;;;;;10374628;28;20052;-59
2023/03/18 12:00:59;;;;;;;15.05;6.85;;;;;;;;;;10374352;28;20028;-59
2023/03/18 12:06:28;;;;;;;15.30;7.07;;;;;;;;;;10247009;29;20059;-59
2023/03/18 12:12:03;;;;;;;9.23;5.70;;;;;;;;;;10222350;29;20034;-59
2023/03/18 12:17:09;;;;;;;13.32;6.95;;;;;;;;;;10246659;29;20097;-58
2023/03/18 12:22:40;;;;;;;9.95;5.68;;;;;;;;;;10246197;29;20123;-58
2023/03/18 12:28:09;;;;;;;9.90;6.35;;;;;;;;;;10246203;29;20039;-59
2023/03/18 12:33:36;;;;;;;11.93;5.47;;;;;;;;;;10250103;28;20488;-59
2023/03/18 12:39:05;;;;;;;11.00;5.45;;;;;;;;;;10372135;28;20026;-59
2023/03/18 12:44:45;;;;;;;14.05;5.40;;;;;;;;;;10371371;28;20366;-59
2023/03/18 12:50:18;;;;;;;9.57;5.03;;;;;;;;;;10369815;28;20091;-59
2023/03/18 12:55:48;;;;;;;10.95;5.38;;;;;;;;;;10368288;28;20054;-60
2023/03/18 13:01:17;;;;;;;9.90;5.40;;;;;;;;;;10370678;28;20044;-60
2023/03/18 13:06:42;;;;;;;7.53;5.40;;;;;;;;;;10372284;28;20044;-59
2023/03/18 13:12:08;;;;;;;13.75;5.55;;;;;;;;;;10370078;28;20294;-59
2023/03/18 13:17:15;;;;;;;6.00;4.60;;;;;;;;;;10370131;28;20080;-59
2023/03/18 13:22:32;;;;;;;7.55;5.07;;;;;;;;;;10367411;28;20069;-59
2023/03/18 13:27:40;;;;;;;8.50;4.93;;;;;;;;;;10367591;28;20033;-59
2023/03/18 13:32:58;;;;;;;6.85;4.47;;;;;;;;;;10370829;28;20133;-59
2023/03/18 13:38:13;;;;;;;8.57;4.75;;;;;;;;;;10370536;28;20481;-59
2023/03/18 13:43:18;;;;;;;8.00;4.85;;;;;;;;;;10370183;28;20137;-59
2023/03/18 13:48:34;;;;;;;10.18;5.10;;;;;;;;;;10368526;28;20108;-59
2023/03/18 13:53:41;;;;;;;9.13;4.93;;;;;;;;;;10367832;28;20041;-59
2023/03/18 13:58:46;;;;;;;9.82;4.88;;;;;;;;;;10369493;28;20026;-59
2023/03/18 14:03:50;;;;;;;9.85;4.45;;;;;;;;;;10368030;28;20088;-59
2023/03/18 14:08:52;;;;;;;13.63;4.50;;;;;;;;;;10370002;28;20100;-59
2023/03/18 14:14:01;;;;;;;8.25;4.80;;;;;;;;;;10368420;28;20029;-59
2023/03/18 14:19:31;;;;;;;13.55;4.63;;;;;;;;;;10368604;28;20442;-59
2023/03/18 14:24:32;;;;;;;7.68;4.68;;;;;;;;;;10367225;28;20030;-58
2023/03/18 14:29:35;;;;;;;9.13;4.72;;;;;;;;;;10368580;28;20038;-58
2023/03/18 14:34:57;;;;;;;8.80;4.82;;;;;;;;;;10367514;28;20061;-59
2023/03/18 14:40:18;;;;;;;8.15;4.70;;;;;;;;;;10368396;28;20040;-59
2023/03/18 14:45:29;;;;;;;11.70;4.28;;;;;;;;;;10367692;28;20473;-59
2023/03/18 14:50:48;;;;;;;8.40;4.72;;;;;;;;;;10367839;28;20026;-58
2023/03/18 14:55:50;;;;;;;7.57;4.45;;;;;;;;;;10366122;28;20037;-59
2023/03/18 15:00:56;;;;;;;9.30;4.60;;;;;;;;;;10364814;28;20026;-58
2023/03/18 15:06:02;;;;;;;10.60;4.78;;;;;;;;;;10365419;28;20476;-59
2023/03/18 15:11:05;;;;;;;8.50;4.30;;;;;;;;;;10365502;28;20478;-59
2023/03/18 15:16:13;;;;;;;6.03;4.25;;;;;;;;;;10365522;28;20080;-58
2023/03/18 15:21:17;;;;;;;8.18;4.30;;;;;;;;;;10367354;28;20037;-58
2023/03/18 15:26:37;;;;;;;5.45;3.90;;;;;;;;;;10366546;28;20022;-58
2023/03/18 15:31:43;;;;;;;8.73;4.20;;;;;;;;;;10365819;28;20193;-58
2023/03/18 15:36:56;;;;;;;7.32;3.95;;;;;;;;;;10366566;28;20033;-58
2023/03/18 15:41:58;;;;;;;4.93;3.50;;;;;;;;;;10365433;28;20033;-58
2023/03/18 15:47:09;;;;;;;7.00;4.05;;;;;;;;;;10366720;28;20066;-58
2023/03/18 15:52:15;;;;;;;7.00;3.80;;;;;;;;;;10367119;28;20018;-58
2023/03/18 15:57:36;;;;;;;9.43;4.03;;;;;;;;;;10363955;28;20469;-58
2023/03/18 16:02:37;;;;;;;9.27;4.22;;;;;;;;;;10365939;28;20033;-58
2023/03/18 16:07:38;;;;;;;7.15;4.25;;;;;;;;;;10365861;28;20045;-58
2023/03/18 16:12:39;;;;;;;8.35;4.43;;;;;;;;;;10371954;28;20040;-58
2023/03/18 16:17:40;;;;;;;8.13;4.05;;;;;;;;;;10372919;28;20026;-58
2023/03/18 16:22:41;;;;;;;7.50;4.00;;;;;;;;;;10373049;28;20030;-58
2023/03/18 16:27:55;;;;;;;5.72;4.00;;;;;;;;;;10372934;28;20037;-58
2023/03/18 16:32:57;;;;;;;6.20;3.58;;;;;;;;;;10369934;28;20433;-59
2023/03/18 16:37:59;;;;;;;5.10;3.88;;;;;;;;;;10371930;28;20429;-58
2023/03/18 16:42:59;;;;;;;5.90;4.00;;;;;;;;;;10371209;28;20054;-58
2023/03/18 16:48:04;;;;;;;5.70;3.53;;;;;;;;;;10372311;28;20477;-58
2023/03/18 16:53:16;;;;;;;7.00;3.65;;;;;;;;;;10370155;28;20069;-58
2023/03/18 16:58:23;;;;;;;5.15;3.88;;;;;;;;;;10371414;28;20026;-58
2023/03/18 17:03:25;;;;;;;7.13;3.95;;;;;;;;;;10371326;28;20045;-58
2023/03/18 17:08:25;;;;;;;7.13;3.45;;;;;;;;;;10371621;28;20057;-59
2023/03/18 17:13:29;;;;;;;3.67;3.30;;;;;;;;;;10371504;28;20033;-58
2023/03/18 17:18:30;;;;;;;4.50;3.40;;;;;;;;;;10370061;28;20030;-58
2023/03/18 17:23:31;;;;;;;4.72;3.55;;;;;;;;;;10369727;28;20038;-58
2023/03/18 17:28:36;;;;;;;3.97;3.20;;;;;;;;;;10369658;28;20409;-58
2023/03/18 17:33:37;;;;;;;6.13;3.60;;;;;;;;;;10369384;28;20033;-58
2023/03/18 17:38:37;;;;;;;10.88;3.88;;;;;;;;;;10369252;28;20057;-58
2023/03/18 17:43:39;;;;;;;3.47;2.92;;;;;;;;;;10368849;28;20069;-58
2023/03/18 17:48:39;;;;;;;4.38;3.10;;;;;;;;;;10368475;28;20420;-58
2023/03/18 17:53:50;;;;;;;4.82;3.30;;;;;;;;;;10368381;28;20076;-58
2023/03/18 17:58:52;;;;;;;4.53;3.00;;;;;;;;;;10369734;28;20303;-58
2023/03/18 18:03:54;;;;;;;4.95;3.17;;;;;;;;;;10368671;28;20049;-58
2023/03/18 18:08:59;;;;;;;11.07;3.53;;;;;;;;;;10368256;28;20512;-58
2023/03/18 18:14:11;;;;;;;3.25;2.92;;;;;;;;;;10368343;28;20030;-58
2023/03/18 18:19:13;;;;;;;5.13;2.90;;;;;;;;;;10368131;28;20033;-58
2023/03/18 18:24:24;;;;;;;4.97;3.20;;;;;;;;;;10367826;28;20032;-58
2023/03/18 18:29:29;;;;;;;4.70;2.95;;;;;;;;;;10366907;28;20041;-58
2023/03/18 18:34:30;;;;;;;5.15;3.05;;;;;;;;;;10367283;28;20466;-58
2023/03/18 18:39:30;;;;;;;13.52;3.70;;;;;;;;;;10367879;28;20030;-58
2023/03/18 18:44:32;;;;;;;17.17;3.33;;;;;;;;;;10367666;28;20413;-58
2023/03/18 18:49:33;;;;;;;4.85;2.80;;;;;;;;;;10366534;28;20128;-58
2023/03/18 18:54:34;;;;;;;8.80;3.30;;;;;;;;;;10367125;28;20081;-59
2023/03/18 18:59:35;;;;;;;6.90;3.55;;;;;;;;;;10367598;28;20037;-59
2023/03/18 19:04:36;;;;;;;7.95;3.45;;;;;;;;;;10364476;28;20030;-59
2023/03/18 19:09:37;;;;;;;3.83;2.63;;;;;;;;;;10367615;28;20318;-59
2023/03/18 19:14:38;;;;;;;8.90;3.35;;;;;;;;;;10366790;28;20026;-59
2023/03/18 19:19:41;;;;;;;27.90;4.53;;;;;;;;;;10365450;28;20478;-59
2023/03/18 19:24:44;;;;;;;24.27;5.28;;;;;;;;;;10366551;28;20029;-59
2023/03/18 19:29:45;;;;;;;15.32;4.43;;;;;;;;;;10367633;28;20033;-59
2023/03/18 19:34:47;;;;;;;19.75;5.00;;;;;;;;;;10366128;28;20378;-59
2023/03/18 19:39:48;;;;;;;7.97;4.13;;;;;;;;;;10365927;28;20022;-59
2023/03/18 19:44:48;;;;;;;11.32;3.85;;;;;;;;;;10370480;28;20034;-59
2023/03/18 19:49:49;;;;;;;7.40;3.50;;;;;;;;;;10373662;28;20036;-59
2023/03/18 19:54:51;;;;;;;12.13;3.83;;;;;;;;;;10374314;28;20489;-59
2023/03/18 19:59:56;;;;;;;10.90;3.70;;;;;;;;;;10373964;28;20381;-59
2023/03/18 20:05:00;;;;;;;6.93;3.35;;;;;;;;;;10371191;28;20029;-58
2023/03/18 20:10:00;;;;;;;10.13;3.30;;;;;;;;;;10373268;28;20436;-58
2023/03/18 20:15:06;;;;;;;12.48;3.55;;;;;;;;;;10373481;28;20092;-59
2023/03/18 20:20:15;;;;;;;5.72;3.70;;;;;;;;;;10371794;28;20111;-58
2023/03/18 20:25:21;;;;;;;5.18;3.00;;;;;;;;;;10369820;28;20132;-59
2023/03/18 20:30:34;;;;;;;6.35;3.70;;;;;;;;;;10371597;28;20037;-59
2023/03/18 20:35:39;;;;;;;11.52;4.07;;;;;;;;;;10372144;28;20030;-58
2023/03/18 20:40:41;;;;;;;6.53;3.20;;;;;;;;;;10370367;28;20064;-59
2023/03/18 20:45:42;;;;;;;5.75;3.00;;;;;;;;;;10369557;28;20129;-58
2023/03/18 20:50:43;;;;;;;5.25;3.00;;;;;;;;;;10371548;28;20462;-58
2023/03/18 20:55:45;;;;;;;6.93;3.20;;;;;;;;;;10370870;28;20382;-59
2023/03/18 21:00:46;;;;;;;10.95;4.13;;;;;;;;;;10370537;28;20414;-59
2023/03/18 21:05:47;;;;;;;33.60;5.05;;;;;;;;;;10371238;28;20044;-58
2023/03/18 21:10:47;;;;;;;14.40;4.03;;;;;;;;;;10370965;28;20374;-58
2023/03/18 21:15:48;;;;;;;13.80;4.10;;;;;;;;;;10371061;28;20439;-59
2023/03/18 21:20:49;;;;;;;13.75;4.18;;;;;;;;;;10370484;28;20031;-59
2023/03/18 21:25:52;;;;;;;11.82;3.90;;;;;;;;;;10369410;28;20244;-59
2023/03/18 21:30:54;;;;;;;10.40;3.72;;;;;;;;;;10370434;28;20049;-59
2023/03/18 21:36:00;;;;;;;18.55;4.40;;;;;;;;;;10370066;28;20116;-59
2023/03/18 21:41:02;;;;;;;9.35;4.18;;;;;;;;;;10370600;28;20029;-59
2023/03/18 21:46:06;;;;;;;12.68;4.28;;;;;;;;;;10368535;28;20084;-59
2023/03/18 21:51:25;;;;;;;12.18;3.83;;;;;;;;;;10369408;28;20033;-59
2023/03/18 21:56:26;;;;;;;7.78;3.58;;;;;;;;;;10368790;28;20018;-59
2023/03/18 22:01:30;;;;;;;10.77;4.18;;;;;;;;;;10369561;28;20053;-58
2023/03/18 22:06:32;;;;;;;9.90;3.75;;;;;;;;;;10367671;28;20033;-59
2023/03/18 22:11:32;;;;;;;10.82;4.15;;;;;;;;;;10368374;28;20030;-58
2023/03/18 22:16:33;;;;;;;9.40;3.97;;;;;;;;;;10368805;28;20445;-58
2023/03/18 22:21:33;;;;;;;9.55;3.67;;;;;;;;;;10368593;28;20057;-59
2023/03/18 22:26:34;;;;;;;7.63;3.90;;;;;;;;;;10368069;28;20386;-58
2023/03/18 22:31:35;;;;;;;6.22;3.80;;;;;;;;;;10367290;28;20048;-59
2023/03/18 22:36:36;;;;;;;10.52;3.97;;;;;;;;;;10366085;28;20022;-59
2023/03/18 22:41:36;;;;;;;7.07;3.60;;;;;;;;;;10366630;28;20415;-59
2023/03/18 22:46:37;;;;;;;8.95;4.47;;;;;;;;;;10365755;28;20412;-59
2023/03/18 22:51:40;;;;;;;8.13;3.38;;;;;;;;;;10367074;28;20033;-59
2023/03/18 22:56:41;;;;;;;10.57;4.13;;;;;;;;;;10366698;28;20385;-59
2023/03/18 23:01:42;;;;;;;9.10;3.90;;;;;;;;;;10367104;28;20105;-59
2023/03/18 23:06:42;;;;;;;17.08;3.75;;;;;;;;;;10366709;28;20482;-59
2023/03/18 23:11:43;;;;;;;17.25;3.42;;;;;;;;;;10366936;28;20038;-59
2023/03/18 23:16:44;;;;;;;15.68;3.72;;;;;;;;;;10367874;28;20030;-60
2023/03/18 23:21:45;;;;;;;20.58;4.35;;;;;;;;;;10374385;28;20034;-60
2023/03/18 23:26:45;;;;;;;6.03;3.10;;;;;;;;;;10375442;28;20029;-60
2023/03/18 23:31:46;;;;;;;8.30;3.58;;;;;;;;;;10375548;28;20033;-59
2023/03/18 23:36:47;;;;;;;7.63;3.38;;;;;;;;;;10375016;28;20026;-60
2023/03/18 23:41:48;;;;;;;8.98;3.38;;;;;;;;;;10375382;28;20037;-60
2023/03/18 23:46:48;;;;;;;8.27;3.63;;;;;;;;;;10374260;28;20112;-59
2023/03/18 23:51:50;;;;;;;7.72;3.22;;;;;;;;;;10374983;28;21741;-60
2023/03/18 23:56:50;;;;;;;8.38;3.30;;;;;;;;;;10374750;28;20084;-60
